Pagina principală
METAR-TAF:

METAR-TAF

Aeroporturi :

Osorno, Chile

Latitudine: 40-36-41S, longitudine: 73-03-38W, elevație: 57 m

Observații meteo curente

Raportul a fost făcut în urmă cu 1 oră și 17 de minute, la 04:00 UTC
Vânt 2 kt din direcții variabile
Temperatură 8°C
Umiditate 93%
Presiune 1017 hPa
Vizibilitate de 10 km sau mai mult
nu există nori sub 1.500 m și nici cumulonimbus

METAR: SCJO 140400Z AUTO VRB02KT CAVOK 08/07 Q1017

Ora: 01:17 (05:17 UTC)

Prognoză

Raportul a fost făcut în urmă cu 19 ore și 8 de minute, la 10:09 UTC
Prognoză valabilă de la 13 ora 12 UTC la 13 ora 24 UTC
Vânt 2 kt din direcții variabile
Vizibilitate de 10 km sau mai mult
nu există nori sub 1.500 m și nici cumulonimbus
Devenind
de la 13 ora 14 UTC la 13 ora 16 UTC
Vânt 8 kt de la Sud/Sud-est
Temporar
de la 13 ora 17 UTC la 13 ora 21 UTC
Vânt 14 kt de la Est

TAF: SCJO 131009Z 1312/1324 VRB02KT CAVOK TN03/1312Z TX22/1319Z BECMG 1314/1316 16008KT TEMPO 1317/1321 09014KT

Observații și prognoze meteo pentru peste 4.000 de aeroporturi (rapoarte METAR și TAF).

Stațiile disponibile sunt reprezentate pe hartă prin puncte galbene și roșii.

Țineți indicatorul mouse-ului pe punctul dorit pentru a vedea denumirea stației.

Apoi, faceți clic pentru a vedea observațiile și prognozele meteorologice.

Pentru a schimba harta: Pentru mărire, faceți clic pe butoanele verzi cu cruce neagră; pentru micșorare, pe butonul verde cu o liniuță; pentru hărți învecinate, pe săgețile verzi.


METAR-TAF: